createdAt,value
2023-09-23T00:00:19.531Z,14.82
2023-09-23T00:02:46.427Z,14.78
2023-09-23T00:05:17.741Z,14.69
2023-09-23T00:07:45.199Z,14.47
2023-09-23T00:10:12.598Z,14.52
2023-09-23T00:12:41.807Z,14.61
2023-09-23T00:15:11.873Z,14.58
2023-09-23T00:17:39.358Z,14.57
2023-09-23T00:20:15.821Z,14.55
2023-09-23T00:22:43.502Z,14.56
2023-09-23T00:25:10.903Z,14.56
2023-09-23T00:27:38.142Z,14.53
2023-09-23T00:30:06.279Z,14.52
2023-09-23T00:32:36.065Z,14.53
2023-09-23T00:35:02.861Z,14.56
2023-09-23T00:37:31.887Z,14.57
2023-09-23T00:39:58.676Z,14.59
2023-09-23T00:42:25.473Z,14.59
2023-09-23T00:44:52.211Z,14.20
2023-09-23T00:47:19.451Z,14.19
2023-09-23T00:49:47.782Z,14.12
2023-09-23T00:52:15.929Z,14.22
2023-09-23T00:54:43.984Z,14.27
2023-09-23T00:57:11.186Z,14.31
2023-09-23T00:59:37.946Z,14.30
2023-09-23T01:02:06.309Z,14.32
2023-09-23T01:04:35.883Z,14.35
2023-09-23T01:07:03.455Z,14.34
2023-09-23T01:09:32.577Z,14.31
2023-09-23T01:11:59.342Z,14.31
2023-09-23T01:14:26.691Z,14.05
2023-09-23T01:17:11.383Z,14.25
2023-09-23T01:19:38.388Z,14.21
2023-09-23T01:22:06.186Z,14.22
2023-09-23T01:24:33.858Z,14.10
2023-09-23T01:27:00.587Z,14.26
2023-09-23T01:29:28.166Z,14.26
2023-09-23T01:31:57.990Z,14.28
2023-09-23T01:34:24.701Z,14.32
2023-09-23T01:36:55.120Z,14.32
2023-09-23T01:39:22.609Z,14.32
2023-09-23T01:41:49.328Z,14.36
2023-09-23T01:44:17.640Z,14.32
2023-09-23T01:46:44.630Z,14.34
2023-09-23T01:49:11.357Z,14.34
2023-09-23T01:51:38.079Z,14.33
2023-09-23T01:54:05.542Z,14.23
2023-09-23T01:56:33.028Z,14.22
2023-09-23T01:58:59.813Z,14.22
2023-09-23T02:01:27.571Z,14.15
2023-09-23T02:03:54.355Z,14.21
2023-09-23T02:06:21.110Z,14.12
2023-09-23T02:08:47.806Z,14.10
2023-09-23T02:11:14.625Z,14.08
2023-09-23T02:13:42.379Z,14.00
2023-09-23T02:16:09.607Z,13.99
2023-09-23T02:18:38.723Z,13.88
2023-09-23T02:21:05.436Z,13.87
2023-09-23T02:23:32.251Z,13.88
2023-09-23T02:26:02.199Z,13.85
2023-09-23T02:28:29.643Z,13.86
2023-09-23T02:30:56.398Z,13.85
2023-09-23T02:33:27.153Z,13.79
2023-09-23T02:35:54.074Z,13.80
2023-09-23T02:38:22.764Z,13.82
2023-09-23T02:40:51.385Z,13.71
2023-09-23T02:43:21.610Z,13.75
2023-09-23T02:45:48.975Z,13.72
2023-09-23T02:48:15.844Z,13.71
2023-09-23T02:50:43.643Z,13.66
2023-09-23T02:53:12.145Z,13.58
2023-09-23T02:55:53.025Z,13.53
2023-09-23T02:58:19.834Z,13.62
2023-09-23T03:00:58.369Z,13.56
2023-09-23T03:03:26.192Z,13.52
2023-09-23T03:05:58.851Z,13.52
2023-09-23T03:08:25.879Z,13.53
2023-09-23T03:10:53.431Z,13.50
2023-09-23T03:13:20.285Z,13.54
2023-09-23T03:15:55.020Z,13.53
2023-09-23T03:18:35.524Z,13.41
2023-09-23T03:21:09.586Z,13.48
2023-09-23T03:23:43.070Z,13.51
2023-09-23T03:26:11.151Z,13.40
2023-09-23T03:28:40.319Z,13.39
2023-09-23T03:31:10.494Z,13.42
2023-09-23T03:33:38.323Z,13.28
2023-09-23T03:36:11.043Z,13.36
2023-09-23T03:38:39.841Z,13.36
2023-09-23T03:41:06.618Z,13.36
2023-09-23T03:43:33.401Z,13.36
2023-09-23T03:46:00.227Z,13.36
2023-09-23T03:48:27.025Z,13.30
2023-09-23T03:50:54.266Z,13.26
2023-09-23T03:53:25.094Z,13.25
2023-09-23T03:55:56.786Z,13.20
2023-09-23T03:58:23.976Z,13.19
2023-09-23T04:00:50.916Z,13.19
2023-09-23T04:03:19.517Z,13.24
2023-09-23T04:05:55.268Z,13.00
2023-09-23T04:08:22.012Z,13.14
2023-09-23T04:10:48.773Z,13.10
2023-09-23T04:13:15.828Z,13.17
2023-09-23T04:15:43.720Z,13.15
2023-09-23T04:18:10.630Z,13.15
2023-09-23T04:20:37.948Z,13.12
2023-09-23T04:23:05.209Z,13.17
2023-09-23T04:25:32.042Z,12.75
2023-09-23T04:27:58.875Z,12.99
2023-09-23T04:30:26.416Z,13.09
2023-09-23T04:32:53.164Z,13.14
2023-09-23T04:35:19.974Z,13.20
2023-09-23T04:37:46.836Z,13.30
2023-09-23T04:40:16.455Z,13.44
2023-09-23T04:42:44.304Z,13.40
2023-09-23T04:45:12.653Z,13.18
2023-09-23T04:47:41.340Z,13.47
2023-09-23T04:50:13.820Z,13.37
2023-09-23T04:52:42.197Z,13.63
2023-09-23T04:55:09.383Z,13.76
2023-09-23T04:57:37.613Z,13.86
2023-09-23T05:00:06.100Z,13.96
2023-09-23T05:02:33.109Z,14.19
2023-09-23T05:05:00.068Z,14.28
2023-09-23T05:07:27.094Z,14.42
2023-09-23T05:09:56.887Z,14.45
2023-09-23T05:12:24.952Z,14.62
2023-09-23T05:14:54.078Z,14.80
2023-09-23T05:17:22.656Z,14.89
2023-09-23T05:19:49.501Z,15.12
2023-09-23T05:22:16.573Z,15.26
2023-09-23T05:24:48.709Z,15.44
2023-09-23T05:27:16.216Z,15.63
2023-09-23T05:29:46.019Z,15.86
2023-09-23T05:32:13.487Z,16.70
2023-09-23T05:34:41.089Z,17.90
2023-09-23T05:37:08.033Z,19.00
2023-09-23T05:39:35.997Z,19.83
2023-09-23T05:42:05.595Z,19.70
2023-09-23T05:44:32.268Z,19.62
2023-09-23T05:47:01.075Z,19.84
2023-09-23T05:49:29.429Z,19.90
2023-09-23T05:51:56.138Z,21.24
2023-09-23T05:54:24.129Z,22.45
2023-09-23T05:56:50.869Z,23.48
2023-09-23T05:59:18.420Z,24.59
2023-09-23T06:01:46.270Z,25.42
2023-09-23T06:04:13.078Z,26.11
2023-09-23T06:06:40.370Z,26.74
2023-09-23T06:09:07.777Z,27.38
2023-09-23T06:11:35.300Z,28.01
2023-09-23T06:14:02.406Z,28.61
2023-09-23T06:16:29.806Z,28.94
2023-09-23T06:18:56.807Z,29.72
2023-09-23T06:21:23.524Z,30.11
2023-09-23T06:23:50.522Z,30.52
2023-09-23T06:26:17.871Z,30.68
2023-09-23T06:28:44.758Z,31.41
2023-09-23T06:31:11.635Z,31.95
2023-09-23T06:33:38.496Z,32.01
2023-09-23T06:36:06.859Z,32.89
2023-09-23T06:38:34.107Z,33.22
2023-09-23T06:41:01.128Z,33.38
2023-09-23T06:43:28.280Z,33.53
2023-09-23T06:46:00.305Z,34.07
2023-09-23T06:48:27.315Z,34.40
2023-09-23T06:51:01.559Z,34.34
2023-09-23T06:53:29.632Z,33.52
2023-09-23T06:55:57.019Z,34.44
2023-09-23T06:58:23.969Z,34.97
2023-09-23T07:00:50.725Z,34.99
2023-09-23T07:03:17.618Z,35.36
2023-09-23T07:05:44.636Z,35.42
2023-09-23T07:08:14.611Z,36.08
2023-09-23T07:10:41.728Z,36.10
2023-09-23T07:13:13.196Z,36.19
2023-09-23T07:15:41.767Z,36.44
2023-09-23T07:18:10.683Z,36.80
2023-09-23T07:20:37.474Z,35.27
2023-09-23T07:23:04.844Z,36.09
2023-09-23T07:25:39.536Z,36.08
2023-09-23T07:28:11.070Z,36.53
2023-09-23T07:30:37.865Z,36.62
2023-09-23T07:33:05.052Z,37.02
2023-09-23T07:35:35.528Z,35.70
2023-09-23T07:38:03.562Z,36.42
2023-09-23T07:40:31.806Z,36.93
2023-09-23T07:42:59.178Z,36.95
2023-09-23T07:45:26.107Z,37.61
2023-09-23T07:47:52.899Z,35.66
2023-09-23T07:50:20.274Z,37.36
2023-09-23T07:52:47.099Z,37.46
2023-09-23T07:55:15.002Z,38.39
2023-09-23T07:57:41.970Z,38.65
2023-09-23T08:00:09.833Z,37.34
2023-09-23T08:02:37.246Z,38.10
2023-09-23T08:05:05.354Z,38.08
2023-09-23T08:07:33.768Z,38.03
2023-09-23T08:10:00.975Z,37.71
2023-09-23T08:12:28.627Z,37.23
2023-09-23T08:14:55.391Z,34.81
2023-09-23T08:17:22.248Z,36.03
2023-09-23T08:19:49.114Z,35.35
2023-09-23T08:22:16.865Z,35.16
2023-09-23T08:24:43.910Z,35.62
2023-09-23T08:27:11.054Z,36.93
2023-09-23T08:29:37.832Z,37.50
2023-09-23T08:32:04.746Z,37.88
2023-09-23T08:34:31.523Z,37.55
2023-09-23T08:36:58.618Z,36.95
2023-09-23T08:39:25.415Z,36.94
2023-09-23T08:41:55.868Z,38.21
2023-09-23T08:44:24.000Z,38.07
2023-09-23T08:46:53.899Z,36.15
2023-09-23T08:49:25.427Z,37.77
2023-09-23T08:52:04.122Z,37.88
2023-09-23T08:54:31.226Z,36.62
2023-09-23T08:56:59.253Z,36.09
2023-09-23T08:59:29.253Z,36.99
2023-09-23T09:01:56.786Z,36.87
2023-09-23T09:04:25.516Z,37.54
2023-09-23T09:06:54.383Z,34.97
2023-09-23T09:09:21.748Z,35.87
2023-09-23T09:11:50.398Z,35.75
2023-09-23T09:14:17.910Z,36.14
2023-09-23T09:16:46.799Z,36.36
2023-09-23T09:19:14.081Z,36.12
2023-09-23T09:21:42.512Z,36.23
2023-09-23T09:24:10.347Z,37.28
2023-09-23T09:26:37.223Z,33.90
2023-09-23T09:29:04.875Z,33.76
2023-09-23T09:31:39.904Z,33.04
2023-09-23T09:34:10.915Z,33.32
2023-09-23T09:36:39.483Z,33.46
2023-09-23T09:39:10.076Z,35.50
2023-09-23T09:41:54.509Z,35.76
2023-09-23T09:44:26.285Z,34.62
2023-09-23T09:46:56.107Z,34.20
2023-09-23T09:49:23.346Z,34.12
2023-09-23T09:51:50.665Z,33.99
2023-09-23T09:54:22.424Z,34.14
2023-09-23T09:56:51.318Z,33.70
2023-09-23T09:59:34.037Z,34.00
2023-09-23T10:02:01.825Z,33.72
2023-09-23T10:04:35.961Z,33.82
2023-09-23T10:07:07.261Z,33.54
2023-09-23T10:09:35.468Z,33.88
2023-09-23T10:12:03.771Z,33.72
2023-09-23T10:14:30.557Z,33.36
2023-09-23T10:17:05.847Z,32.35
2023-09-23T10:19:35.357Z,32.65
2023-09-23T10:22:14.631Z,33.46
2023-09-23T10:24:42.430Z,33.66
2023-09-23T10:27:13.152Z,33.52
2023-09-23T10:29:51.272Z,33.08
2023-09-23T10:32:19.661Z,34.05
2023-09-23T10:34:50.963Z,33.95
2023-09-23T10:37:32.053Z,33.64
2023-09-23T10:40:14.918Z,33.19
2023-09-23T10:42:42.644Z,33.09
2023-09-23T10:45:10.988Z,32.67
2023-09-23T10:47:38.872Z,32.49
2023-09-23T10:50:07.460Z,32.98
2023-09-23T10:52:34.996Z,32.70
2023-09-23T10:55:02.423Z,32.82
2023-09-23T10:57:29.296Z,32.89
2023-09-23T10:59:56.969Z,33.17
2023-09-23T11:02:24.428Z,32.72
2023-09-23T11:04:55.046Z,32.91
2023-09-23T11:07:21.902Z,33.04
2023-09-23T11:09:48.595Z,32.97
2023-09-23T11:12:17.086Z,32.23
2023-09-23T11:14:47.358Z,32.19
2023-09-23T11:17:27.151Z,32.19
2023-09-23T11:19:55.524Z,32.19
2023-09-23T11:22:26.241Z,31.56
2023-09-23T11:24:54.766Z,32.25
2023-09-23T11:27:28.366Z,32.12
2023-09-23T11:29:56.528Z,32.66
2023-09-23T11:32:27.472Z,32.18
2023-09-23T11:34:55.948Z,31.84
2023-09-23T11:37:25.952Z,31.57
2023-09-23T11:39:52.626Z,31.52
2023-09-23T11:42:20.469Z,31.87
2023-09-23T11:44:47.387Z,32.36
2023-09-23T11:47:14.201Z,32.40
2023-09-23T11:49:40.936Z,31.85
2023-09-23T11:52:13.963Z,32.20
2023-09-23T11:54:42.193Z,32.34
2023-09-23T11:57:09.823Z,31.89
2023-09-23T11:59:37.477Z,31.77
2023-09-23T12:02:04.802Z,31.98
2023-09-23T12:04:32.302Z,31.48
2023-09-23T12:06:59.400Z,31.06
2023-09-23T12:09:26.336Z,31.24
2023-09-23T12:11:53.280Z,31.36
2023-09-23T12:14:23.095Z,31.09
2023-09-23T12:16:49.942Z,31.06
2023-09-23T12:19:16.744Z,30.98
2023-09-23T12:21:43.824Z,31.10
2023-09-23T12:24:10.795Z,31.25
2023-09-23T12:26:37.550Z,31.52
2023-09-23T12:29:04.901Z,31.02
2023-09-23T12:31:31.763Z,30.77
2023-09-23T12:33:58.647Z,30.94
2023-09-23T12:36:25.799Z,30.41
2023-09-23T12:38:55.658Z,30.76
2023-09-23T12:41:22.460Z,30.81
2023-09-23T12:43:49.193Z,31.01
2023-09-23T12:46:15.989Z,30.75
2023-09-23T12:48:42.939Z,30.70
2023-09-23T12:51:10.311Z,30.91
2023-09-23T12:53:37.007Z,30.68
2023-09-23T12:56:05.372Z,30.93
2023-09-23T12:58:32.150Z,30.49
2023-09-23T13:00:58.994Z,30.47
2023-09-23T13:03:26.133Z,30.63
2023-09-23T13:05:52.955Z,30.60
2023-09-23T13:08:21.363Z,30.03
2023-09-23T13:10:48.266Z,30.20
2023-09-23T13:13:14.924Z,30.23
2023-09-23T13:15:41.780Z,30.01
2023-09-23T13:18:10.212Z,30.24
2023-09-23T13:20:37.486Z,29.84
2023-09-23T13:23:05.989Z,29.53
2023-09-23T13:25:32.763Z,29.63
2023-09-23T13:27:59.662Z,29.76
2023-09-23T13:30:26.421Z,29.55
2023-09-23T13:32:53.125Z,29.42
2023-09-23T13:35:20.101Z,29.32
2023-09-23T13:37:46.935Z,29.03
2023-09-23T13:40:14.726Z,29.21
2023-09-23T13:42:41.590Z,29.42
2023-09-23T13:45:08.928Z,29.43
2023-09-23T13:47:35.950Z,29.28
2023-09-23T13:50:10.107Z,28.98
2023-09-23T13:52:36.919Z,28.87
2023-09-23T13:55:04.061Z,28.79
2023-09-23T13:57:30.916Z,28.76
2023-09-23T13:59:57.654Z,28.85
2023-09-23T14:02:24.686Z,28.74
2023-09-23T14:04:51.674Z,28.85
2023-09-23T14:07:18.867Z,28.94
2023-09-23T14:09:45.564Z,28.91
2023-09-23T14:12:12.457Z,29.07
2023-09-23T14:14:39.202Z,29.35
2023-09-23T14:17:06.026Z,29.25
2023-09-23T14:19:33.927Z,29.34
2023-09-23T14:22:00.716Z,29.49
2023-09-23T14:24:29.064Z,29.62
2023-09-23T14:26:56.191Z,29.50
2023-09-23T14:29:24.836Z,29.43
2023-09-23T14:31:54.386Z,29.47
2023-09-23T14:34:21.118Z,29.52
2023-09-23T14:36:49.770Z,29.31
2023-09-23T14:39:16.541Z,29.34
2023-09-23T14:41:45.913Z,29.28
2023-09-23T14:44:12.779Z,29.51
2023-09-23T14:46:40.442Z,29.56
2023-09-23T14:49:07.576Z,29.21
2023-09-23T14:51:34.459Z,29.35
2023-09-23T14:54:01.344Z,29.25
2023-09-23T14:56:28.595Z,29.06
2023-09-23T14:58:55.320Z,29.00
2023-09-23T15:01:22.065Z,28.99
2023-09-23T15:03:49.131Z,29.11
2023-09-23T15:06:16.257Z,29.02
2023-09-23T15:08:57.711Z,28.83
2023-09-23T15:11:31.469Z,28.85
2023-09-23T15:14:00.198Z,28.84
2023-09-23T15:16:29.043Z,28.76
2023-09-23T15:18:56.075Z,28.50
2023-09-23T15:21:22.770Z,28.48
2023-09-23T15:23:49.932Z,27.95
2023-09-23T15:26:18.880Z,27.67
2023-09-23T15:28:46.019Z,27.43
2023-09-23T15:31:12.867Z,27.57
2023-09-23T15:33:39.690Z,27.37
2023-09-23T15:36:06.630Z,27.57
2023-09-23T15:38:33.428Z,27.53
2023-09-23T15:41:00.219Z,27.32
2023-09-23T15:43:27.015Z,26.89
2023-09-23T15:46:00.633Z,26.82
2023-09-23T15:48:27.472Z,26.57
2023-09-23T15:50:55.307Z,26.48
2023-09-23T15:53:22.625Z,26.08
2023-09-23T15:55:52.761Z,26.14
2023-09-23T15:58:21.478Z,25.60
2023-09-23T16:00:48.728Z,25.52
2023-09-23T16:03:15.922Z,25.55
2023-09-23T16:05:43.674Z,25.40
2023-09-23T16:08:10.614Z,25.40
2023-09-23T16:10:37.467Z,25.28
2023-09-23T16:13:08.601Z,25.15
2023-09-23T16:15:35.416Z,24.85
2023-09-23T16:18:02.157Z,24.75
2023-09-23T16:20:28.974Z,24.59
2023-09-23T16:22:55.770Z,24.49
2023-09-23T16:25:22.522Z,23.89
2023-09-23T16:27:49.220Z,23.42
2023-09-23T16:30:16.043Z,23.23
2023-09-23T16:32:42.935Z,23.45
2023-09-23T16:35:11.152Z,23.33
2023-09-23T16:37:38.133Z,23.15
2023-09-23T16:40:07.410Z,22.66
2023-09-23T16:42:34.580Z,22.52
2023-09-23T16:45:01.510Z,22.65
2023-09-23T16:47:28.276Z,22.47
2023-09-23T16:49:55.146Z,22.56
2023-09-23T16:52:21.982Z,22.50
2023-09-23T16:54:50.615Z,22.20
2023-09-23T16:57:20.149Z,21.87
2023-09-23T16:59:47.811Z,21.74
2023-09-23T17:02:15.395Z,21.57
2023-09-23T17:04:47.090Z,21.64
2023-09-23T17:07:14.718Z,21.67
2023-09-23T17:09:42.914Z,21.61
2023-09-23T17:12:12.099Z,21.68
2023-09-23T17:14:39.965Z,21.69
2023-09-23T17:17:06.745Z,21.71
2023-09-23T17:19:33.544Z,21.34
2023-09-23T17:22:00.779Z,21.34
2023-09-23T17:24:28.732Z,21.28
2023-09-23T17:26:55.613Z,21.26
2023-09-23T17:29:22.517Z,21.22
2023-09-23T17:31:49.501Z,21.18
2023-09-23T17:34:16.446Z,21.00
2023-09-23T17:36:43.423Z,21.05
2023-09-23T17:39:10.236Z,20.99
2023-09-23T17:41:37.528Z,20.96
2023-09-23T17:44:04.717Z,20.91
2023-09-23T17:46:31.467Z,20.88
2023-09-23T17:48:58.400Z,20.85
2023-09-23T17:51:25.325Z,20.56
2023-09-23T17:53:51.977Z,20.30
2023-09-23T17:56:18.820Z,20.20
2023-09-23T17:58:48.183Z,20.03
2023-09-23T18:01:15.205Z,20.10
2023-09-23T18:03:42.108Z,19.96
2023-09-23T18:06:09.030Z,19.92
2023-09-23T18:08:35.859Z,19.87
2023-09-23T18:11:02.684Z,19.84
2023-09-23T18:13:29.931Z,19.42
2023-09-23T18:15:56.933Z,19.47
2023-09-23T18:18:26.413Z,19.49
2023-09-23T18:20:53.420Z,19.60
2023-09-23T18:23:20.216Z,19.58
2023-09-23T18:25:46.944Z,19.42
2023-09-23T18:28:13.755Z,19.41
2023-09-23T18:30:40.628Z,19.20
2023-09-23T18:33:07.705Z,19.29
2023-09-23T18:35:35.006Z,19.30
2023-09-23T18:38:02.113Z,19.30
2023-09-23T18:40:28.978Z,19.23
2023-09-23T18:42:56.040Z,19.24
2023-09-23T18:45:23.144Z,19.09
2023-09-23T18:47:59.821Z,19.14
2023-09-23T18:50:30.264Z,19.01
2023-09-23T18:52:57.039Z,18.96
2023-09-23T18:55:24.103Z,19.00
2023-09-23T18:57:52.031Z,18.94
2023-09-23T19:00:20.873Z,18.95
2023-09-23T19:02:48.231Z,18.81
2023-09-23T19:05:15.928Z,18.83
2023-09-23T19:07:42.704Z,18.78
2023-09-23T19:10:12.044Z,18.78
2023-09-23T19:12:39.203Z,18.74
2023-09-23T19:15:07.395Z,18.66
2023-09-23T19:17:34.906Z,18.67
2023-09-23T19:20:01.693Z,18.66
2023-09-23T19:22:28.414Z,18.63
2023-09-23T19:24:55.184Z,18.62
2023-09-23T19:27:22.023Z,18.59
2023-09-23T19:29:51.039Z,18.52
2023-09-23T19:32:18.019Z,18.16
2023-09-23T19:34:44.951Z,18.26
2023-09-23T19:37:11.617Z,18.21
2023-09-23T19:39:38.501Z,18.19
2023-09-23T19:42:05.535Z,18.17
2023-09-23T19:44:33.246Z,18.14
2023-09-23T19:47:02.046Z,18.16
2023-09-23T19:49:29.309Z,18.04
2023-09-23T19:51:56.797Z,18.04
2023-09-23T19:54:24.089Z,17.97
2023-09-23T19:59:20.863Z,17.83
2023-09-23T20:01:48.330Z,17.81
2023-09-23T20:04:15.362Z,17.86
2023-09-23T20:06:42.669Z,17.82
2023-09-23T20:09:10.122Z,17.81
2023-09-23T20:11:37.182Z,17.82
2023-09-23T20:14:04.018Z,17.68
2023-09-23T20:16:30.814Z,17.66
2023-09-23T20:18:58.752Z,17.63
2023-09-23T20:21:25.619Z,17.38
2023-09-23T20:23:52.816Z,17.48
2023-09-23T20:26:21.017Z,17.54
2023-09-23T20:28:48.215Z,17.53
2023-09-23T20:31:16.623Z,17.43
2023-09-23T20:33:44.142Z,17.26
2023-09-23T20:36:11.215Z,17.35
2023-09-23T20:38:40.288Z,17.30
2023-09-23T20:41:08.009Z,17.36
2023-09-23T20:43:38.890Z,17.30
2023-09-23T20:46:12.568Z,17.27
2023-09-23T20:48:39.415Z,17.32
2023-09-23T20:51:06.329Z,17.31
2023-09-23T20:53:35.845Z,17.13
2023-09-23T20:56:06.661Z,17.04
2023-09-23T20:58:34.545Z,17.09
2023-09-23T21:01:02.025Z,17.03
2023-09-23T21:03:28.862Z,17.02
2023-09-23T21:05:55.908Z,16.96
2023-09-23T21:08:22.890Z,16.97
2023-09-23T21:10:51.368Z,16.94
2023-09-23T21:13:18.077Z,16.89
2023-09-23T21:15:44.932Z,16.86
2023-09-23T21:18:13.157Z,16.87
2023-09-23T21:20:40.649Z,16.78
2023-09-23T21:23:08.284Z,16.88
2023-09-23T21:25:35.134Z,16.81
2023-09-23T21:28:01.918Z,16.79
2023-09-23T21:30:29.019Z,16.75
2023-09-23T21:32:55.925Z,16.66
2023-09-23T21:35:22.710Z,16.57
2023-09-23T21:37:49.518Z,16.55
2023-09-23T21:40:16.322Z,16.39
2023-09-23T21:42:43.117Z,16.47
2023-09-23T21:45:12.973Z,16.50
2023-09-23T21:47:40.071Z,16.44
2023-09-23T21:50:07.414Z,16.41
2023-09-23T21:52:34.183Z,16.21
2023-09-23T21:55:01.110Z,16.34
2023-09-23T21:57:27.957Z,16.22
2023-09-23T21:59:56.782Z,16.29
2023-09-23T22:02:26.276Z,16.27
2023-09-23T22:04:53.153Z,16.31
2023-09-23T22:07:19.911Z,16.34
2023-09-23T22:09:47.962Z,16.33
2023-09-23T22:12:15.990Z,16.23
2023-09-23T22:14:46.303Z,16.20
2023-09-23T22:17:14.939Z,16.21
2023-09-23T22:19:41.751Z,16.13
2023-09-23T22:22:08.507Z,15.97
2023-09-23T22:24:35.157Z,16.04
2023-09-23T22:27:01.864Z,16.04
2023-09-23T22:29:28.749Z,15.94
2023-09-23T22:31:56.705Z,16.01
2023-09-23T22:34:25.398Z,16.03
2023-09-23T22:36:54.126Z,15.86
2023-09-23T22:39:21.032Z,15.87
2023-09-23T22:41:48.336Z,15.84
2023-09-23T22:44:15.070Z,15.83
2023-09-23T22:46:42.868Z,15.81
2023-09-23T22:49:13.452Z,15.78
2023-09-23T22:51:40.329Z,15.82
2023-09-23T22:54:07.152Z,15.78
2023-09-23T22:56:34.858Z,15.72
2023-09-23T22:59:01.887Z,15.66
2023-09-23T23:01:28.708Z,15.69
2023-09-23T23:03:55.504Z,15.58
2023-09-23T23:06:23.668Z,15.60
2023-09-23T23:08:52.572Z,15.61
2023-09-23T23:11:20.353Z,15.63
2023-09-23T23:13:47.798Z,15.55
2023-09-23T23:16:17.329Z,15.65
2023-09-23T23:18:45.638Z,15.55
2023-09-23T23:21:12.505Z,15.53
2023-09-23T23:23:39.287Z,15.50
2023-09-23T23:26:07.621Z,15.42
2023-09-23T23:28:35.329Z,15.30
2023-09-23T23:31:02.648Z,15.39
2023-09-23T23:33:29.530Z,15.36
2023-09-23T23:36:00.458Z,15.38
2023-09-23T23:38:28.205Z,15.31
2023-09-23T23:40:55.436Z,15.29
2023-09-23T23:43:25.724Z,15.32
2023-09-23T23:46:02.715Z,15.27
2023-09-23T23:48:30.724Z,15.32
2023-09-23T23:51:04.827Z,15.31
2023-09-23T23:53:33.743Z,15.31
2023-09-23T23:56:10.406Z,15.20
2023-09-23T23:58:40.448Z,15.17
